createdAt,value
2018-12-16T00:02:28.759Z,18.27
2018-12-16T00:04:57.663Z,20.68
2018-12-16T00:07:26.655Z,18.50
2018-12-16T00:09:57.438Z,17.05
2018-12-16T00:12:25.932Z,19.20
2018-12-16T00:14:54.468Z,19.77
2018-12-16T00:17:23.003Z,21.00
2018-12-16T00:19:52.420Z,16.10
2018-12-16T00:22:21.460Z,17.75
2018-12-16T00:24:50.679Z,17.50
2018-12-16T00:27:19.156Z,16.32
2018-12-16T00:29:47.710Z,18.65
2018-12-16T00:32:16.478Z,20.17
2018-12-16T00:34:45.107Z,19.55
2018-12-16T00:37:13.688Z,20.92
2018-12-16T00:39:42.260Z,18.57
2018-12-16T00:42:12.220Z,17.87
2018-12-16T00:44:40.755Z,18.17
2018-12-16T00:47:09.367Z,20.05
2018-12-16T00:49:38.002Z,17.25
2018-12-16T00:52:06.655Z,19.50
2018-12-16T00:54:35.212Z,16.25
2018-12-16T00:57:05.290Z,16.85
2018-12-16T00:59:33.913Z,18.25
2018-12-16T01:02:02.471Z,15.38
2018-12-16T01:04:31.097Z,18.27
2018-12-16T01:06:59.729Z,17.35
2018-12-16T01:09:28.388Z,19.62
2018-12-16T01:11:57.003Z,18.50
2018-12-16T01:14:27.489Z,15.05
2018-12-16T01:16:56.117Z,20.05
2018-12-16T01:19:24.716Z,17.92
2018-12-16T01:21:53.312Z,14.15
2018-12-16T01:24:22.010Z,16.05
2018-12-16T01:26:52.359Z,14.38
2018-12-16T01:29:20.962Z,15.43
2018-12-16T01:31:49.544Z,15.93
2018-12-16T01:34:18.532Z,15.45
2018-12-16T01:36:47.142Z,16.62
2018-12-16T01:39:15.839Z,15.70
2018-12-16T01:41:44.796Z,16.85
2018-12-16T01:44:13.410Z,17.67
2018-12-16T01:46:41.999Z,14.10
2018-12-16T01:49:11.306Z,17.27
2018-12-16T01:51:40.716Z,15.65
2018-12-16T01:54:09.289Z,16.10
2018-12-16T01:56:37.851Z,18.35
2018-12-16T01:59:06.849Z,15.25
2018-12-16T02:01:36.294Z,19.67
2018-12-16T02:04:04.908Z,14.00
2018-12-16T02:06:33.482Z,14.53
2018-12-16T02:09:02.202Z,14.47
2018-12-16T02:11:30.779Z,14.20
2018-12-16T02:13:59.552Z,15.25
2018-12-16T02:16:28.575Z,17.23
2018-12-16T02:18:56.970Z,13.65
2018-12-16T02:21:25.524Z,14.45
2018-12-16T02:23:54.039Z,14.70
2018-12-16T02:26:22.689Z,14.00
2018-12-16T02:28:51.896Z,14.70
2018-12-16T02:31:20.434Z,15.13
2018-12-16T02:33:50.470Z,14.23
2018-12-16T02:36:19.082Z,13.20
2018-12-16T02:38:47.628Z,13.98
2018-12-16T02:41:17.515Z,14.00
2018-12-16T02:43:47.674Z,14.80
2018-12-16T02:46:16.295Z,14.65
2018-12-16T02:48:45.106Z,15.65
2018-12-16T02:51:14.341Z,15.13
2018-12-16T02:53:42.960Z,16.07
2018-12-16T02:56:11.621Z,14.33
2018-12-16T02:58:40.716Z,12.40
2018-12-16T03:01:09.271Z,13.40
2018-12-16T03:03:37.924Z,15.10
2018-12-16T03:06:07.045Z,12.73
2018-12-16T03:08:37.036Z,13.13
2018-12-16T03:11:05.593Z,13.13
2018-12-16T03:13:34.107Z,13.62
2018-12-16T03:16:02.831Z,15.90
2018-12-16T03:18:31.374Z,13.95
2018-12-16T03:21:00.834Z,14.55
2018-12-16T03:23:29.575Z,15.03
2018-12-16T03:25:58.539Z,14.05
2018-12-16T03:28:27.718Z,14.10
2018-12-16T03:30:56.440Z,12.95
2018-12-16T03:33:25.473Z,14.33
2018-12-16T03:35:54.455Z,14.55
2018-12-16T03:38:23.597Z,13.43
2018-12-16T03:40:52.274Z,12.30
2018-12-16T03:43:21.938Z,13.83
2018-12-16T03:45:50.501Z,12.88
2018-12-16T03:48:19.099Z,13.72
2018-12-16T03:50:47.938Z,12.07
2018-12-16T03:53:20.037Z,11.95
2018-12-16T03:55:47.019Z,12.33
2018-12-16T03:58:15.549Z,12.90
2018-12-16T04:00:45.000Z,14.68
2018-12-16T04:03:15.095Z,12.20
2018-12-16T04:05:44.693Z,13.40
2018-12-16T04:08:13.827Z,12.63
2018-12-16T04:10:43.445Z,12.58
2018-12-16T04:13:12.096Z,13.85
2018-12-16T04:15:40.663Z,12.55
2018-12-16T04:20:51.874Z,11.18
2018-12-16T04:23:27.431Z,12.45
2018-12-16T04:25:53.307Z,11.40
2018-12-16T04:28:21.843Z,12.60
2018-12-16T04:30:51.994Z,11.75
2018-12-16T04:33:20.542Z,12.88
2018-12-16T04:35:48.963Z,16.12
2018-12-16T04:38:17.597Z,12.53
2018-12-16T04:40:47.207Z,13.70
2018-12-16T04:43:15.806Z,11.40
2018-12-16T04:45:44.364Z,12.82
2018-12-16T04:48:12.921Z,12.73
2018-12-16T04:50:41.537Z,12.65
2018-12-16T04:53:10.073Z,11.33
2018-12-16T04:55:38.681Z,10.98
2018-12-16T04:58:08.974Z,11.73
2018-12-16T05:00:38.804Z,13.40
2018-12-16T05:03:07.167Z,13.95
2018-12-16T05:05:35.815Z,12.70
2018-12-16T05:08:04.540Z,14.13
2018-12-16T05:10:33.244Z,15.58
2018-12-16T05:13:01.932Z,13.78
2018-12-16T05:15:30.818Z,17.20
2018-12-16T05:17:59.398Z,15.98
2018-12-16T05:20:28.012Z,12.35
2018-12-16T05:22:56.847Z,15.25
2018-12-16T05:25:25.349Z,15.23
2018-12-16T05:27:53.922Z,16.95
2018-12-16T05:30:23.989Z,14.03
2018-12-16T05:32:52.689Z,11.85
2018-12-16T05:35:22.673Z,12.07
2018-12-16T05:37:51.137Z,12.88
2018-12-16T05:40:19.702Z,13.18
2018-12-16T05:42:49.785Z,13.55
2018-12-16T05:45:18.416Z,15.68
2018-12-16T05:47:46.971Z,13.65
2018-12-16T05:50:15.958Z,12.80
2018-12-16T05:52:44.615Z,11.63
2018-12-16T05:55:13.119Z,12.60
2018-12-16T05:57:41.699Z,14.18
2018-12-16T06:00:10.999Z,14.65
2018-12-16T06:02:39.657Z,15.48
2018-12-16T06:05:08.324Z,11.85
2018-12-16T06:07:37.203Z,13.65
2018-12-16T06:10:06.177Z,14.10
2018-12-16T06:12:34.932Z,12.98
2018-12-16T06:15:03.565Z,13.28
2018-12-16T06:17:33.961Z,11.45
2018-12-16T06:20:02.720Z,15.88
2018-12-16T06:22:31.253Z,13.38
2018-12-16T06:25:00.199Z,14.58
2018-12-16T06:27:29.251Z,12.33
2018-12-16T06:29:59.430Z,17.75
2018-12-16T06:32:28.878Z,14.55
2018-12-16T06:34:59.157Z,16.17
2018-12-16T06:37:28.731Z,18.20
2018-12-16T06:39:58.892Z,14.65
2018-12-16T06:42:28.784Z,15.53
2018-12-16T06:44:57.280Z,12.03
2018-12-16T06:47:25.889Z,24.18
2018-12-16T06:49:54.518Z,21.07
2018-12-16T06:52:23.202Z,15.90
2018-12-16T06:54:52.112Z,27.13
2018-12-16T06:57:20.831Z,22.32
2018-12-16T06:59:49.451Z,18.25
2018-12-16T07:02:18.178Z,22.95
2018-12-16T07:04:46.809Z,18.67
2018-12-16T07:07:15.647Z,16.75
2018-12-16T07:09:44.402Z,16.15
2018-12-16T07:12:14.212Z,16.30
2018-12-16T07:14:43.188Z,21.35
2018-12-16T07:17:12.258Z,17.70
2018-12-16T07:19:40.943Z,16.37
2018-12-16T07:22:10.162Z,17.57
2018-12-16T07:24:39.486Z,16.07
2018-12-16T07:27:08.162Z,13.22
2018-12-16T07:29:36.956Z,21.87
2018-12-16T07:32:05.882Z,15.85
2018-12-16T07:34:35.016Z,11.60
2018-12-16T07:37:03.821Z,14.05
2018-12-16T07:39:32.743Z,16.40
2018-12-16T07:42:01.288Z,11.53
2018-12-16T07:44:30.027Z,15.65
2018-12-16T07:46:58.817Z,12.98
2018-12-16T07:49:27.865Z,17.00
2018-12-16T07:51:56.802Z,13.22
2018-12-16T07:54:25.676Z,13.60
2018-12-16T07:56:55.692Z,14.63
2018-12-16T07:59:25.123Z,15.50
2018-12-16T08:01:54.245Z,15.43
2018-12-16T08:04:23.007Z,13.95
2018-12-16T08:06:51.577Z,13.78
2018-12-16T08:09:20.583Z,12.07
2018-12-16T08:11:50.815Z,14.53
2018-12-16T08:14:20.828Z,14.87
2018-12-16T08:16:50.029Z,12.47
2018-12-16T08:19:18.862Z,14.60
2018-12-16T08:21:47.563Z,12.78
2018-12-16T08:24:22.931Z,11.78
2018-12-16T08:26:48.209Z,11.45
2018-12-16T08:29:16.959Z,12.78
2018-12-16T08:31:46.813Z,14.85
2018-12-16T08:34:16.607Z,11.12
2018-12-16T08:36:45.350Z,12.18
2018-12-16T08:39:14.087Z,14.18
2018-12-16T08:41:43.162Z,14.07
2018-12-16T08:44:13.806Z,14.05
2018-12-16T08:46:43.203Z,13.80
2018-12-16T08:49:13.138Z,19.42
2018-12-16T08:51:42.483Z,14.07
2018-12-16T08:54:11.718Z,16.57
2018-12-16T08:56:40.439Z,18.75
2018-12-16T08:59:10.396Z,15.60
2018-12-16T09:01:39.875Z,14.35
2018-12-16T09:04:09.633Z,18.95
2018-12-16T09:06:38.296Z,16.52
2018-12-16T09:09:10.007Z,15.38
2018-12-16T09:11:39.125Z,16.30
2018-12-16T09:14:07.824Z,18.35
2018-12-16T09:16:37.683Z,19.55
2018-12-16T09:19:07.095Z,20.27
2018-12-16T09:21:38.934Z,22.25
2018-12-16T09:24:08.439Z,21.82
2018-12-16T09:26:38.898Z,24.90
2018-12-16T09:29:09.202Z,26.50
2018-12-16T09:31:39.039Z,20.85
2018-12-16T09:34:07.856Z,27.20
2018-12-16T09:36:38.168Z,27.25
2018-12-16T09:39:07.801Z,29.02
2018-12-16T09:41:36.714Z,26.95
2018-12-16T09:44:05.530Z,28.40
2018-12-16T09:46:34.245Z,25.02
2018-12-16T09:49:02.993Z,28.20
2018-12-16T09:51:31.713Z,26.80
2018-12-16T09:54:00.445Z,28.92
2018-12-16T09:56:29.232Z,27.27
2018-12-16T09:58:58.234Z,32.58
2018-12-16T10:01:26.824Z,35.55
2018-12-16T10:03:55.560Z,32.42
2018-12-16T10:06:24.268Z,34.60
2018-12-16T10:08:53.025Z,34.45
2018-12-16T10:11:21.763Z,33.58
2018-12-16T10:13:50.502Z,34.18
2018-12-16T10:16:19.876Z,35.17
2018-12-16T10:18:49.025Z,38.78
2018-12-16T10:21:18.994Z,37.60
2018-12-16T10:23:47.900Z,37.30
2018-12-16T10:26:16.603Z,37.30
2018-12-16T10:28:45.327Z,36.80
2018-12-16T10:31:13.980Z,35.98
2018-12-16T10:33:42.716Z,34.73
2018-12-16T10:36:11.527Z,40.25
2018-12-16T10:38:40.211Z,32.85
2018-12-16T10:41:09.027Z,34.78
2018-12-16T10:43:37.924Z,34.92
2018-12-16T10:46:06.609Z,36.65
2018-12-16T10:48:35.499Z,37.80
2018-12-16T10:51:04.371Z,32.20
2018-12-16T10:53:33.069Z,34.88
2018-12-16T10:56:04.079Z,35.70
2018-12-16T10:58:32.967Z,35.28
2018-12-16T11:01:07.182Z,35.65
2018-12-16T11:03:35.893Z,34.00
2018-12-16T11:06:04.770Z,32.30
2018-12-16T11:08:34.731Z,35.73
2018-12-16T11:11:03.413Z,35.80
2018-12-16T11:13:32.145Z,32.38
2018-12-16T11:16:00.890Z,33.02
2018-12-16T11:18:29.621Z,31.80
2018-12-16T11:20:58.347Z,33.30
2018-12-16T11:23:27.223Z,33.38
2018-12-16T11:25:56.437Z,31.15
2018-12-16T11:28:25.428Z,33.08
2018-12-16T11:30:54.372Z,34.48
2018-12-16T11:33:23.367Z,32.33
2018-12-16T11:35:52.085Z,33.23
2018-12-16T11:38:21.228Z,34.73
2018-12-16T11:40:50.037Z,34.27
2018-12-16T11:43:18.852Z,34.25
2018-12-16T11:45:47.573Z,32.45
2018-12-16T11:48:16.227Z,33.58
2018-12-16T11:50:45.904Z,33.55
2018-12-16T11:53:15.776Z,34.18
2018-12-16T11:55:44.936Z,34.78
2018-12-16T11:58:13.511Z,31.97
2018-12-16T12:00:42.854Z,32.88
2018-12-16T12:03:12.281Z,32.28
2018-12-16T12:05:40.810Z,31.33
2018-12-16T12:08:09.978Z,32.48
2018-12-16T12:10:39.679Z,32.45
2018-12-16T12:13:08.265Z,33.75
2018-12-16T12:15:37.810Z,34.45
2018-12-16T12:18:08.028Z,34.70
2018-12-16T12:20:36.515Z,31.87
2018-12-16T12:23:05.524Z,29.87
2018-12-16T12:25:35.376Z,33.33
2018-12-16T12:28:04.566Z,35.28
2018-12-16T12:30:33.389Z,31.75
2018-12-16T12:33:02.000Z,31.52
2018-12-16T12:35:30.751Z,31.45
2018-12-16T12:37:59.301Z,31.73
2018-12-16T12:40:27.859Z,34.13
2018-12-16T12:42:57.881Z,31.85
2018-12-16T12:45:26.682Z,35.08
2018-12-16T12:47:55.192Z,32.75
2018-12-16T12:50:23.715Z,35.45
2018-12-16T12:52:54.224Z,32.03
2018-12-16T12:55:26.794Z,33.83
2018-12-16T12:57:53.504Z,33.02
2018-12-16T13:00:23.345Z,32.23
2018-12-16T13:02:51.942Z,32.13
2018-12-16T13:05:20.417Z,32.15
2018-12-16T13:07:49.866Z,31.57
2018-12-16T13:10:19.520Z,34.95
2018-12-16T13:12:47.980Z,33.67
2018-12-16T13:15:17.195Z,36.23
2018-12-16T13:17:46.804Z,34.50
2018-12-16T13:20:15.653Z,34.67
2018-12-16T13:22:44.841Z,33.80
2018-12-16T13:25:20.388Z,34.40
2018-12-16T13:27:48.970Z,34.10
2018-12-16T13:30:17.437Z,35.55
2018-12-16T13:32:46.148Z,34.27
2018-12-16T13:35:14.878Z,38.20
2018-12-16T13:37:43.377Z,36.55
2018-12-16T13:40:11.865Z,35.13
2018-12-16T13:42:40.939Z,35.05
2018-12-16T13:45:09.879Z,37.60
2018-12-16T13:47:39.712Z,36.77
2018-12-16T13:50:09.398Z,35.95
2018-12-16T13:52:39.245Z,34.13
2018-12-16T13:55:09.559Z,36.48
2018-12-16T13:57:39.953Z,40.45
2018-12-16T14:00:09.704Z,40.52
2018-12-16T14:02:39.680Z,44.18
2018-12-16T14:05:08.242Z,53.55
2018-12-16T14:07:37.255Z,51.02
2018-12-16T14:10:07.015Z,51.55
2018-12-16T14:12:37.134Z,60.70
2018-12-16T14:15:05.627Z,49.98
2018-12-16T14:17:34.899Z,55.38
2018-12-16T14:20:03.439Z,47.15
2018-12-16T14:22:32.329Z,54.25
2018-12-16T14:25:02.096Z,46.77
2018-12-16T14:27:30.678Z,49.83
2018-12-16T14:29:59.256Z,50.88
2018-12-16T14:32:27.786Z,43.78
2018-12-16T14:34:56.345Z,45.40
2018-12-16T14:37:24.914Z,50.12
2018-12-16T14:39:53.514Z,46.15
2018-12-16T14:42:22.504Z,42.15
2018-12-16T14:44:51.081Z,46.88
2018-12-16T14:47:38.906Z,44.73
2018-12-16T14:50:08.694Z,41.80
2018-12-16T14:52:38.474Z,40.65
2018-12-16T14:55:07.649Z,44.00
2018-12-16T14:57:37.886Z,41.37
2018-12-16T15:00:07.872Z,39.78
2018-12-16T15:02:36.436Z,38.85
2018-12-16T15:05:05.168Z,39.60
2018-12-16T15:07:33.935Z,46.90
2018-12-16T15:10:02.976Z,39.90
2018-12-16T15:12:31.589Z,40.78
2018-12-16T15:15:01.823Z,40.52
2018-12-16T15:17:31.048Z,38.40
2018-12-16T15:19:59.715Z,40.17
2018-12-16T15:22:28.451Z,38.85
2018-12-16T15:24:58.625Z,41.73
2018-12-16T15:27:28.715Z,39.33
2018-12-16T15:29:58.107Z,41.58
2018-12-16T15:32:26.709Z,38.00
2018-12-16T15:34:55.422Z,41.10
2018-12-16T15:37:24.160Z,37.60
2018-12-16T15:39:52.795Z,39.10
2018-12-16T15:42:21.444Z,39.35
2018-12-16T15:44:51.418Z,39.58
2018-12-16T15:47:20.345Z,36.90
2018-12-16T15:49:50.160Z,34.20
2018-12-16T15:52:18.750Z,39.67
2018-12-16T15:54:47.550Z,35.05
2018-12-16T15:57:17.471Z,37.28
2018-12-16T15:59:47.085Z,34.43
2018-12-16T16:02:15.998Z,34.73
2018-12-16T16:04:44.433Z,37.05
2018-12-16T16:07:13.597Z,33.13
2018-12-16T16:09:42.268Z,35.63
2018-12-16T16:12:10.897Z,32.60
2018-12-16T16:14:39.552Z,34.18
2018-12-16T16:17:08.145Z,35.75
2018-12-16T16:19:36.726Z,33.55
2018-12-16T16:22:05.336Z,33.30
2018-12-16T16:24:34.192Z,35.17
2018-12-16T16:27:02.803Z,33.13
2018-12-16T16:29:31.417Z,32.67
2018-12-16T16:32:01.041Z,33.33
2018-12-16T16:34:29.467Z,33.70
2018-12-16T16:36:58.179Z,33.98
2018-12-16T16:39:27.216Z,32.20
2018-12-16T16:41:56.876Z,32.55
2018-12-16T16:44:25.802Z,33.20
2018-12-16T16:46:54.930Z,31.90
2018-12-16T16:49:24.184Z,33.60
2018-12-16T16:51:54.365Z,30.35
2018-12-16T16:54:23.895Z,31.82
2018-12-16T16:56:52.593Z,30.65
2018-12-16T16:59:21.694Z,30.40
2018-12-16T17:01:51.151Z,31.00
2018-12-16T17:04:19.831Z,29.05
2018-12-16T17:06:48.790Z,30.55
2018-12-16T17:09:17.510Z,28.30
2018-12-16T17:11:46.158Z,30.15
2018-12-16T17:14:15.682Z,29.12
2018-12-16T17:16:44.265Z,28.00
2018-12-16T17:19:13.218Z,29.37
2018-12-16T17:21:42.327Z,27.67
2018-12-16T17:24:12.129Z,31.10
2018-12-16T17:26:40.943Z,30.55
2018-12-16T17:29:09.662Z,29.15
2018-12-16T17:31:39.239Z,27.85
2018-12-16T17:34:08.154Z,27.15
2018-12-16T17:36:36.913Z,27.22
2018-12-16T17:39:07.143Z,27.85
2018-12-16T17:41:37.321Z,30.52
2018-12-16T17:44:06.868Z,25.88
2018-12-16T17:46:35.809Z,28.25
2018-12-16T17:49:04.839Z,27.62
2018-12-16T17:51:33.629Z,25.25
2018-12-16T17:54:02.909Z,25.35
2018-12-16T17:56:37.009Z,26.87
2018-12-16T17:59:03.887Z,26.17
2018-12-16T18:01:34.396Z,26.50
2018-12-16T18:04:05.082Z,25.20
2018-12-16T18:06:34.728Z,28.07
2018-12-16T18:09:05.999Z,25.15
2018-12-16T18:11:34.843Z,24.15
2018-12-16T18:14:03.477Z,26.05
2018-12-16T18:16:32.293Z,24.12
2018-12-16T18:19:01.691Z,26.02
2018-12-16T18:21:30.695Z,26.15
2018-12-16T18:23:59.703Z,24.65
2018-12-16T18:26:29.261Z,25.57
2018-12-16T18:28:58.539Z,26.37
2018-12-16T18:31:27.498Z,23.55
2018-12-16T18:33:57.203Z,27.05
2018-12-16T18:36:26.077Z,24.95
2018-12-16T18:38:55.611Z,25.23
2018-12-16T18:41:25.693Z,26.55
2018-12-16T18:43:55.715Z,24.23
2018-12-16T18:46:24.872Z,22.62
2018-12-16T18:48:53.792Z,23.83
2018-12-16T18:51:24.878Z,25.17
2018-12-16T18:53:54.753Z,23.40
2018-12-16T18:56:24.241Z,23.55
2018-12-16T18:58:52.926Z,22.42
2018-12-16T19:01:22.398Z,23.67
2018-12-16T19:03:52.148Z,21.77
2018-12-16T19:06:21.971Z,23.10
2018-12-16T19:08:51.810Z,22.52
2018-12-16T19:11:21.347Z,22.93
2018-12-16T19:13:50.376Z,22.00
2018-12-16T19:16:19.065Z,21.80
2018-12-16T19:18:48.017Z,21.82
2018-12-16T19:21:17.120Z,21.45
2018-12-16T19:23:45.851Z,23.40
2018-12-16T19:26:15.018Z,21.05
2018-12-16T19:28:43.722Z,21.70
2018-12-16T19:31:13.421Z,22.95
2018-12-16T19:33:42.554Z,22.13
2018-12-16T19:36:12.163Z,21.42
2018-12-16T19:38:41.535Z,20.48
2018-12-16T19:41:11.232Z,22.90
2018-12-16T19:43:40.411Z,21.42
2018-12-16T19:46:09.167Z,23.10
2018-12-16T19:48:38.449Z,23.20
2018-12-16T19:51:07.416Z,20.97
2018-12-16T19:53:36.634Z,21.37
2018-12-16T19:56:05.275Z,20.68
2018-12-16T19:58:35.667Z,20.92
2018-12-16T20:01:06.067Z,21.65
2018-12-16T20:03:38.630Z,21.42
2018-12-16T20:06:13.935Z,21.65
2018-12-16T20:08:42.560Z,21.00
2018-12-16T20:11:12.667Z,21.55
2018-12-16T20:13:41.976Z,21.35
2018-12-16T20:16:11.799Z,21.93
2018-12-16T20:18:40.444Z,21.10
2018-12-16T20:21:09.145Z,20.80
2018-12-16T20:23:38.180Z,19.90
2018-12-16T20:26:08.254Z,21.23
2018-12-16T20:28:38.197Z,22.30
2018-12-16T20:31:07.993Z,20.48
2018-12-16T20:33:38.306Z,20.15
2018-12-16T20:36:08.699Z,20.68
2018-12-16T20:38:37.921Z,18.90
2018-12-16T20:41:07.635Z,20.88
2018-12-16T20:43:36.283Z,19.85
2018-12-16T20:46:04.901Z,19.42
2018-12-16T20:48:34.893Z,19.62
2018-12-16T20:51:03.548Z,20.65
2018-12-16T20:53:32.243Z,19.85
2018-12-16T20:56:01.928Z,22.60
2018-12-16T21:01:42.004Z,19.05
2018-12-16T21:04:10.748Z,20.35
2018-12-16T21:06:39.722Z,21.15
2018-12-16T21:09:09.514Z,19.27
2018-12-16T21:11:43.242Z,19.57
2018-12-16T21:14:17.147Z,18.15
2018-12-16T21:16:52.339Z,20.43
2018-12-16T21:19:21.792Z,19.23
2018-12-16T21:21:50.776Z,19.98
2018-12-16T21:24:20.242Z,18.98
2018-12-16T21:26:49.476Z,19.65
2018-12-16T21:29:18.457Z,19.73
2018-12-16T21:31:48.038Z,18.45
2018-12-16T21:34:16.975Z,18.48
2018-12-16T21:36:46.266Z,18.05
2018-12-16T21:39:16.740Z,18.62
2018-12-16T21:41:45.481Z,19.50
2018-12-16T21:44:14.026Z,17.45
2018-12-16T21:46:42.595Z,17.73
2018-12-16T21:49:11.234Z,18.65
2018-12-16T21:51:41.144Z,19.87
2018-12-16T21:56:55.344Z,17.02
2018-12-16T21:59:24.127Z,18.85
2018-12-16T22:01:52.689Z,18.32
2018-12-16T22:04:22.112Z,19.00
2018-12-16T22:06:50.730Z,17.75
2018-12-16T22:09:19.259Z,20.55
2018-12-16T22:11:47.771Z,17.73
2018-12-16T22:14:16.966Z,17.62
2018-12-16T22:16:45.511Z,18.77
2018-12-16T22:19:14.047Z,18.07
2018-12-16T22:21:42.758Z,18.87
2018-12-16T22:24:12.793Z,18.55
2018-12-16T22:26:42.577Z,17.77
2018-12-16T22:29:11.168Z,17.77
2018-12-16T22:31:41.814Z,19.00
2018-12-16T22:34:10.609Z,17.37
2018-12-16T22:36:40.637Z,17.27
2018-12-16T22:39:09.504Z,16.73
2018-12-16T22:41:37.979Z,18.12
2018-12-16T22:44:06.745Z,17.92
2018-12-16T22:46:35.647Z,19.15
2018-12-16T22:49:04.622Z,18.20
2018-12-16T22:51:34.133Z,16.73
2018-12-16T22:54:02.773Z,18.40
2018-12-16T22:56:31.958Z,16.95
2018-12-16T22:59:01.678Z,17.50
2018-12-16T23:01:30.333Z,19.15
2018-12-16T23:03:59.892Z,19.07
2018-12-16T23:06:29.246Z,17.35
2018-12-16T23:08:57.859Z,17.55
2018-12-16T23:11:26.701Z,18.48
2018-12-16T23:13:56.394Z,18.02
2018-12-16T23:16:24.970Z,16.65
2018-12-16T23:18:53.576Z,16.37
2018-12-16T23:21:23.012Z,16.82
2018-12-16T23:23:52.647Z,16.75
2018-12-16T23:26:21.916Z,17.15
2018-12-16T23:28:51.750Z,18.02
2018-12-16T23:31:20.748Z,17.67
2018-12-16T23:33:49.227Z,17.00
2018-12-16T23:36:17.711Z,16.65
2018-12-16T23:38:47.941Z,18.48
2018-12-16T23:41:16.412Z,16.97
2018-12-16T23:43:44.980Z,17.85
2018-12-16T23:46:13.494Z,16.32
2018-12-16T23:48:42.045Z,17.92
2018-12-16T23:51:10.647Z,16.17
2018-12-16T23:53:40.582Z,18.02
2018-12-16T23:56:09.238Z,16.82
2018-12-16T23:58:37.697Z,16.93
